createdAt,value
2023-04-09T00:00:24.489Z,7.10
2023-04-09T00:03:13.900Z,7.10
2023-04-09T00:05:43.810Z,7.13
2023-04-09T00:08:12.886Z,7.12
2023-04-09T00:10:42.132Z,7.08
2023-04-09T00:13:11.049Z,7.05
2023-04-09T00:15:39.666Z,7.04
2023-04-09T00:18:08.556Z,7.05
2023-04-09T00:20:37.373Z,7.05
2023-04-09T00:23:06.453Z,7.05
2023-04-09T00:25:35.558Z,7.09
2023-04-09T00:28:04.591Z,7.09
2023-04-09T00:30:33.300Z,7.10
2023-04-09T00:33:02.458Z,7.11
2023-04-09T00:35:31.692Z,7.13
2023-04-09T00:38:00.498Z,7.12
2023-04-09T00:40:29.969Z,7.11
2023-04-09T00:42:58.636Z,7.12
2023-04-09T00:45:27.679Z,7.12
2023-04-09T00:47:57.187Z,7.13
2023-04-09T00:50:26.430Z,7.15
2023-04-09T00:52:55.994Z,7.17
2023-04-09T00:55:25.962Z,7.18
2023-04-09T00:57:54.952Z,7.16
2023-04-09T01:00:23.558Z,7.16
2023-04-09T01:02:53.689Z,7.14
2023-04-09T01:05:22.591Z,7.14
2023-04-09T01:08:29.762Z,7.15
2023-04-09T01:11:27.967Z,7.16
2023-04-09T01:14:03.666Z,7.15
2023-04-09T01:16:37.336Z,7.15
2023-04-09T01:19:32.274Z,7.13
2023-04-09T01:22:02.961Z,7.11
2023-04-09T01:24:51.775Z,7.07
2023-04-09T01:27:38.557Z,7.05
2023-04-09T01:30:09.402Z,7.02
2023-04-09T01:32:39.698Z,7.00
2023-04-09T01:35:09.226Z,6.97
2023-04-09T01:37:41.007Z,6.91
2023-04-09T01:40:10.162Z,6.89
2023-04-09T01:42:40.693Z,6.92
2023-04-09T01:45:12.550Z,6.94
2023-04-09T01:47:41.988Z,6.95
2023-04-09T01:50:11.821Z,6.95
2023-04-09T01:52:41.845Z,6.97
2023-04-09T01:55:10.418Z,6.98
2023-04-09T01:57:39.131Z,7.00
2023-04-09T02:00:09.989Z,6.98
2023-04-09T02:02:56.072Z,6.97
2023-04-09T02:05:29.823Z,6.95
2023-04-09T02:08:03.023Z,6.92
2023-04-09T02:10:35.304Z,6.91
2023-04-09T02:13:06.503Z,6.90
2023-04-09T02:15:39.571Z,6.87
2023-04-09T02:18:22.357Z,6.83
2023-04-09T02:20:52.786Z,6.82
2023-04-09T02:23:22.627Z,6.80
2023-04-09T02:25:52.558Z,6.81
2023-04-09T02:28:21.331Z,6.81
2023-04-09T02:30:50.494Z,6.81
2023-04-09T02:33:19.039Z,6.81
2023-04-09T02:35:47.905Z,6.86
2023-04-09T02:38:17.050Z,6.90
2023-04-09T02:40:45.829Z,6.92
2023-04-09T02:43:14.688Z,6.88
2023-04-09T02:45:43.740Z,6.86
2023-04-09T02:48:12.281Z,6.82
2023-04-09T02:50:42.174Z,6.77
2023-04-09T02:53:11.563Z,6.74
2023-04-09T02:55:40.105Z,6.71
2023-04-09T02:58:08.817Z,6.71
2023-04-09T03:00:38.090Z,6.75
2023-04-09T03:03:06.941Z,6.76
2023-04-09T03:05:36.823Z,6.75
2023-04-09T03:08:06.216Z,6.79
2023-04-09T03:10:35.185Z,6.83
2023-04-09T03:13:03.928Z,6.80
2023-04-09T03:15:32.778Z,6.71
2023-04-09T03:18:02.057Z,6.67
2023-04-09T03:20:31.326Z,6.66
2023-04-09T03:23:00.184Z,6.64
2023-04-09T03:25:36.886Z,6.64
2023-04-09T03:28:12.708Z,6.68
2023-04-09T03:30:53.624Z,6.72
2023-04-09T03:33:22.570Z,6.80
2023-04-09T03:36:01.277Z,6.84
2023-04-09T03:38:37.807Z,6.85
2023-04-09T03:41:11.388Z,6.82
2023-04-09T03:43:40.878Z,6.80
2023-04-09T03:46:17.370Z,6.79
2023-04-09T03:48:47.368Z,6.80
2023-04-09T03:51:16.560Z,6.81
2023-04-09T03:53:50.324Z,6.81
2023-04-09T03:56:21.476Z,6.78
2023-04-09T03:58:50.177Z,6.73
2023-04-09T04:01:19.728Z,6.68
2023-04-09T04:03:56.139Z,6.65
2023-04-09T04:06:27.687Z,6.66
2023-04-09T04:09:23.974Z,6.69
2023-04-09T04:12:13.772Z,6.73
2023-04-09T04:14:51.827Z,6.75
2023-04-09T04:17:26.916Z,6.75
2023-04-09T04:19:55.972Z,6.75
2023-04-09T04:22:26.196Z,6.77
2023-04-09T04:24:58.249Z,6.79
2023-04-09T04:27:27.222Z,6.78
2023-04-09T04:29:59.109Z,6.78
2023-04-09T04:32:49.509Z,6.78
2023-04-09T04:35:18.791Z,6.83
2023-04-09T04:37:51.310Z,6.86
2023-04-09T04:40:20.508Z,6.87
2023-04-09T04:42:51.765Z,6.86
2023-04-09T04:45:20.952Z,6.84
2023-04-09T04:47:53.930Z,6.85
2023-04-09T04:50:22.508Z,6.84
2023-04-09T04:52:58.387Z,6.84
2023-04-09T04:55:29.709Z,6.84
2023-04-09T04:57:59.222Z,6.85
2023-04-09T05:00:30.001Z,6.86
2023-04-09T05:03:02.236Z,6.88
2023-04-09T05:05:54.220Z,6.88
2023-04-09T05:08:24.170Z,6.87
2023-04-09T05:10:56.774Z,6.87
2023-04-09T05:13:29.677Z,6.87
2023-04-09T05:15:58.972Z,6.88
2023-04-09T05:18:27.518Z,6.91
2023-04-09T05:20:56.595Z,6.89
2023-04-09T05:23:26.264Z,6.86
2023-04-09T05:25:54.782Z,6.92
2023-04-09T05:28:38.643Z,6.98
2023-04-09T05:31:13.603Z,7.00
2023-04-09T05:33:48.963Z,7.02
2023-04-09T05:36:21.663Z,7.05
2023-04-09T05:38:51.051Z,7.10
2023-04-09T05:41:19.807Z,7.17
2023-04-09T05:44:02.941Z,7.23
2023-04-09T05:46:31.830Z,7.29
2023-04-09T05:49:00.937Z,7.36
2023-04-09T05:51:31.102Z,7.43
2023-04-09T05:53:59.962Z,7.48
2023-04-09T05:56:29.843Z,7.55
2023-04-09T05:58:59.241Z,7.61
2023-04-09T06:01:27.922Z,7.66
2023-04-09T06:03:58.420Z,7.67
2023-04-09T06:06:31.037Z,7.66
2023-04-09T06:09:01.793Z,7.65
2023-04-09T06:11:31.943Z,7.63
2023-04-09T06:14:00.914Z,7.69
2023-04-09T06:16:30.325Z,7.78
2023-04-09T06:18:59.147Z,7.85
2023-04-09T06:21:28.212Z,7.89
2023-04-09T06:23:57.210Z,7.89
2023-04-09T06:26:26.304Z,7.93
2023-04-09T06:28:55.176Z,8.03
2023-04-09T06:31:23.894Z,8.11
2023-04-09T06:33:52.901Z,8.13
2023-04-09T06:36:21.856Z,8.15
2023-04-09T06:38:50.853Z,8.17
2023-04-09T06:41:27.156Z,8.12
2023-04-09T06:43:56.174Z,8.08
2023-04-09T06:46:24.940Z,8.05
2023-04-09T06:48:54.428Z,8.02
2023-04-09T06:51:23.315Z,7.99
2023-04-09T06:53:52.061Z,7.93
2023-04-09T06:56:21.415Z,7.89
2023-04-09T06:58:50.077Z,7.88
2023-04-09T07:01:18.688Z,7.90
2023-04-09T07:03:47.866Z,7.95
2023-04-09T07:06:16.877Z,8.05
2023-04-09T07:08:45.592Z,8.16
2023-04-09T07:11:17.491Z,8.26
2023-04-09T07:13:46.525Z,8.34
2023-04-09T07:16:15.625Z,8.41
2023-04-09T07:18:44.252Z,8.47
2023-04-09T07:21:13.563Z,8.50
2023-04-09T07:23:42.082Z,8.51
2023-04-09T07:26:11.080Z,8.48
2023-04-09T07:28:40.966Z,8.43
2023-04-09T07:31:09.946Z,8.40
2023-04-09T07:33:39.111Z,8.38
2023-04-09T07:36:08.999Z,8.39
2023-04-09T07:38:37.922Z,8.44
2023-04-09T07:41:06.680Z,8.46
2023-04-09T07:43:35.613Z,8.47
2023-04-09T07:46:04.515Z,8.54
2023-04-09T07:48:33.660Z,8.61
2023-04-09T07:51:02.689Z,8.68
2023-04-09T07:53:31.737Z,8.73
2023-04-09T07:56:00.648Z,8.77
2023-04-09T07:58:29.360Z,8.78
2023-04-09T08:00:58.251Z,8.77
2023-04-09T08:03:28.063Z,8.80
2023-04-09T08:05:57.099Z,8.86
2023-04-09T08:08:26.011Z,8.96
2023-04-09T08:10:54.872Z,9.01
2023-04-09T08:13:25.784Z,9.05
2023-04-09T08:15:54.865Z,9.05
2023-04-09T08:18:23.948Z,9.05
2023-04-09T08:20:52.861Z,9.07
2023-04-09T08:23:21.934Z,9.11
2023-04-09T08:25:50.815Z,9.21
2023-04-09T08:28:20.265Z,9.31
2023-04-09T08:30:49.071Z,9.43
2023-04-09T08:33:18.249Z,9.52
2023-04-09T08:35:47.037Z,9.57
2023-04-09T08:38:16.674Z,9.61
2023-04-09T08:40:45.711Z,9.64
2023-04-09T08:43:19.573Z,9.63
2023-04-09T08:45:48.629Z,9.56
2023-04-09T08:48:18.982Z,9.51
2023-04-09T08:50:47.554Z,9.43
2023-04-09T08:53:18.293Z,9.34
2023-04-09T08:55:47.174Z,9.27
2023-04-09T08:58:16.020Z,9.20
2023-04-09T09:00:45.234Z,9.16
2023-04-09T09:03:14.903Z,9.10
2023-04-09T09:05:46.495Z,9.10
2023-04-09T09:08:24.636Z,9.09
2023-04-09T09:10:53.703Z,9.07
2023-04-09T09:13:25.267Z,9.07
2023-04-09T09:16:13.933Z,9.06
2023-04-09T09:18:44.602Z,9.04
2023-04-09T09:21:18.355Z,9.04
2023-04-09T09:23:48.821Z,9.09
2023-04-09T09:26:21.204Z,9.13
2023-04-09T09:28:51.695Z,9.15
2023-04-09T09:31:22.872Z,9.17
2023-04-09T09:33:52.318Z,9.23
2023-04-09T09:36:35.641Z,9.28
2023-04-09T09:39:10.346Z,9.30
2023-04-09T09:41:42.255Z,9.32
2023-04-09T09:44:13.522Z,9.33
2023-04-09T09:46:45.400Z,9.28
2023-04-09T09:49:14.374Z,9.26
2023-04-09T09:51:43.829Z,9.30
2023-04-09T09:54:13.378Z,9.34
2023-04-09T09:56:44.027Z,9.38
2023-04-09T09:59:23.873Z,9.45
2023-04-09T10:02:01.648Z,9.52
2023-04-09T10:04:36.446Z,9.59
2023-04-09T10:07:07.509Z,9.70
2023-04-09T10:09:38.461Z,9.85
2023-04-09T10:12:10.036Z,9.96
2023-04-09T10:14:40.362Z,10.11
2023-04-09T10:17:09.432Z,10.24
2023-04-09T10:19:46.985Z,10.33
2023-04-09T10:22:21.758Z,10.49
2023-04-09T10:24:51.782Z,10.63
2023-04-09T10:27:21.569Z,10.77
2023-04-09T10:29:52.743Z,10.87
2023-04-09T10:32:28.708Z,10.93
2023-04-09T10:34:59.952Z,10.89
2023-04-09T10:37:29.193Z,10.81
2023-04-09T10:39:58.058Z,10.78
2023-04-09T10:42:42.382Z,10.77
2023-04-09T10:45:15.634Z,10.75
2023-04-09T10:47:46.849Z,10.70
2023-04-09T10:50:28.115Z,10.71
2023-04-09T10:52:58.830Z,10.70
2023-04-09T10:55:30.982Z,10.60
2023-04-09T10:58:00.126Z,10.48
2023-04-09T11:00:28.963Z,10.39
2023-04-09T11:03:04.928Z,10.31
2023-04-09T11:05:40.598Z,10.23
2023-04-09T11:08:14.899Z,10.14
2023-04-09T11:10:45.555Z,10.09
2023-04-09T11:13:16.888Z,10.05
2023-04-09T11:15:46.270Z,10.04
2023-04-09T11:18:28.966Z,10.03
2023-04-09T11:21:04.036Z,10.01
2023-04-09T11:23:34.002Z,9.98
2023-04-09T11:26:03.058Z,9.94
2023-04-09T11:28:31.906Z,9.90
2023-04-09T11:31:00.543Z,9.89
2023-04-09T11:33:34.014Z,9.89
2023-04-09T11:36:06.145Z,9.94
2023-04-09T11:38:37.286Z,9.97
2023-04-09T11:41:05.776Z,9.94
2023-04-09T11:43:37.123Z,9.92
2023-04-09T11:46:08.374Z,9.91
2023-04-09T11:48:37.322Z,9.86
2023-04-09T11:51:06.888Z,9.80
2023-04-09T11:53:37.776Z,9.79
2023-04-09T11:56:07.705Z,9.78
2023-04-09T11:58:36.905Z,9.76
2023-04-09T12:01:05.850Z,9.75
2023-04-09T12:03:35.052Z,9.74
2023-04-09T12:06:05.791Z,9.73
2023-04-09T12:08:36.912Z,9.72
2023-04-09T12:11:13.211Z,9.73
2023-04-09T12:13:45.088Z,9.73
2023-04-09T12:16:14.617Z,9.69
2023-04-09T12:18:43.957Z,9.69
2023-04-09T12:21:13.177Z,9.73
2023-04-09T12:23:41.678Z,9.75
2023-04-09T12:26:11.114Z,9.73
2023-04-09T12:28:39.880Z,9.66
2023-04-09T12:31:12.399Z,9.59
2023-04-09T12:33:41.549Z,9.50
2023-04-09T12:36:10.191Z,9.43
2023-04-09T12:38:38.952Z,9.39
2023-04-09T12:41:08.118Z,9.37
2023-04-09T12:43:36.902Z,9.39
2023-04-09T12:46:05.942Z,9.44
2023-04-09T12:48:35.714Z,9.49
2023-04-09T12:51:04.480Z,9.52
2023-04-09T12:53:33.319Z,9.54
2023-04-09T12:56:02.533Z,9.56
2023-04-09T12:58:31.622Z,9.57
2023-04-09T13:01:01.732Z,9.54
2023-04-09T13:03:31.191Z,9.50
2023-04-09T13:05:59.846Z,9.44
2023-04-09T13:08:28.676Z,9.32
2023-04-09T13:10:57.705Z,9.25
2023-04-09T13:13:26.292Z,9.21
2023-04-09T13:15:54.979Z,9.17
2023-04-09T13:18:24.228Z,9.16
2023-04-09T13:20:52.752Z,9.16
2023-04-09T13:23:21.380Z,9.16
2023-04-09T13:25:50.668Z,9.18
2023-04-09T13:28:19.129Z,9.16
2023-04-09T13:30:48.473Z,9.10
2023-04-09T13:33:17.737Z,9.07
2023-04-09T13:35:46.180Z,9.05
2023-04-09T13:38:14.837Z,9.04
2023-04-09T13:40:43.736Z,9.02
2023-04-09T13:43:12.435Z,9.02
2023-04-09T13:45:41.828Z,9.04
2023-04-09T13:48:12.289Z,9.06
2023-04-09T13:50:42.028Z,9.09
2023-04-09T13:53:10.709Z,9.10
2023-04-09T13:55:40.201Z,9.09
2023-04-09T13:58:08.724Z,9.09
2023-04-09T14:00:38.581Z,9.08
2023-04-09T14:03:08.254Z,9.08
2023-04-09T14:05:37.142Z,9.11
2023-04-09T14:08:05.694Z,9.12
2023-04-09T14:10:34.788Z,9.19
2023-04-09T14:13:06.885Z,9.25
2023-04-09T14:15:35.876Z,9.28
2023-04-09T14:18:04.514Z,9.30
2023-04-09T14:20:35.186Z,9.29
2023-04-09T14:23:04.455Z,9.27
2023-04-09T14:25:33.063Z,9.28
2023-04-09T14:28:02.090Z,9.33
2023-04-09T14:30:31.446Z,9.36
2023-04-09T14:33:00.275Z,9.38
2023-04-09T14:35:29.161Z,9.41
2023-04-09T14:37:58.860Z,9.40
2023-04-09T14:40:27.454Z,9.38
2023-04-09T14:42:55.973Z,9.35
2023-04-09T14:45:25.087Z,9.33
2023-04-09T14:47:54.124Z,9.31
2023-04-09T14:50:22.652Z,9.30
2023-04-09T14:52:53.084Z,9.31
2023-04-09T14:55:22.050Z,9.31
2023-04-09T14:57:50.544Z,9.35
2023-04-09T15:00:19.885Z,9.36
2023-04-09T15:02:49.262Z,9.36
2023-04-09T15:05:17.969Z,9.34
2023-04-09T15:07:47.265Z,9.31
2023-04-09T15:10:16.184Z,9.30
2023-04-09T15:12:44.943Z,9.32
2023-04-09T15:15:16.842Z,9.38
2023-04-09T15:17:45.340Z,9.41
2023-04-09T15:20:14.296Z,9.43
2023-04-09T15:22:43.290Z,9.46
2023-04-09T15:25:13.715Z,9.48
2023-04-09T15:27:43.080Z,9.47
2023-04-09T15:30:12.320Z,9.43
2023-04-09T15:32:40.793Z,9.38
2023-04-09T15:35:09.569Z,9.33
2023-04-09T15:37:38.576Z,9.29
2023-04-09T15:40:07.877Z,9.25
2023-04-09T15:42:36.722Z,9.25
2023-04-09T15:45:06.592Z,9.25
2023-04-09T15:47:35.477Z,9.23
2023-04-09T15:50:04.083Z,9.21
2023-04-09T15:52:33.676Z,9.19
2023-04-09T15:55:02.552Z,9.20
2023-04-09T15:57:31.095Z,9.20
2023-04-09T16:00:00.251Z,9.19
2023-04-09T16:02:29.054Z,9.19
2023-04-09T16:04:57.729Z,9.18
2023-04-09T16:07:27.055Z,9.17
2023-04-09T16:09:55.528Z,9.17
2023-04-09T16:12:25.089Z,9.19
2023-04-09T16:14:54.631Z,9.19
2023-04-09T16:17:24.132Z,9.23
2023-04-09T16:19:52.546Z,9.21
2023-04-09T16:22:21.635Z,9.14
2023-04-09T16:24:50.390Z,9.11
2023-04-09T16:27:18.907Z,9.08
2023-04-09T16:29:48.016Z,9.07
2023-04-09T16:32:16.957Z,9.09
2023-04-09T16:34:46.086Z,9.09
2023-04-09T16:37:15.062Z,9.08
2023-04-09T16:39:43.537Z,9.09
2023-04-09T16:42:12.494Z,9.09
2023-04-09T16:44:41.844Z,9.08
2023-04-09T16:47:10.300Z,9.08
2023-04-09T16:49:39.022Z,9.07
2023-04-09T16:52:08.504Z,9.05
2023-04-09T16:54:36.939Z,9.05
2023-04-09T16:57:05.984Z,9.04
2023-04-09T16:59:35.034Z,9.05
2023-04-09T17:02:03.698Z,9.06
2023-04-09T17:04:52.713Z,9.06
2023-04-09T17:07:46.839Z,9.07
2023-04-09T17:10:36.862Z,9.11
2023-04-09T17:13:27.662Z,9.10
2023-04-09T17:16:15.073Z,9.12
2023-04-09T17:19:07.680Z,9.15
2023-04-09T17:21:59.802Z,9.17
2023-04-09T17:24:45.431Z,9.20
2023-04-09T17:27:38.473Z,9.21
2023-04-09T17:30:46.755Z,9.21
2023-04-09T17:33:34.543Z,9.18
2023-04-09T17:36:26.189Z,9.15
2023-04-09T17:39:14.182Z,9.08
2023-04-09T17:42:06.221Z,9.05
2023-04-09T17:44:44.356Z,9.02
2023-04-09T17:47:15.384Z,9.00
2023-04-09T17:49:46.243Z,9.01
2023-04-09T17:52:16.604Z,8.99
2023-04-09T17:54:45.704Z,8.99
2023-04-09T17:57:14.354Z,8.96
2023-04-09T17:59:43.768Z,8.93
2023-04-09T18:02:12.928Z,8.93
2023-04-09T18:04:42.208Z,8.92
2023-04-09T18:07:11.484Z,8.89
2023-04-09T18:09:40.788Z,8.89
2023-04-09T18:12:10.205Z,8.86
2023-04-09T18:14:39.461Z,8.86
2023-04-09T18:17:07.969Z,8.89
2023-04-09T18:19:36.902Z,8.91
2023-04-09T18:22:06.564Z,8.93
2023-04-09T18:24:35.885Z,8.93
2023-04-09T18:27:04.554Z,8.95
2023-04-09T18:29:33.921Z,8.96
2023-04-09T18:32:02.620Z,8.96
2023-04-09T18:34:31.371Z,8.94
2023-04-09T18:37:00.064Z,8.92
2023-04-09T18:39:31.182Z,8.90
2023-04-09T18:42:00.389Z,8.92
2023-04-09T18:44:29.297Z,8.95
2023-04-09T18:46:59.672Z,8.94
2023-04-09T18:49:29.039Z,8.92
2023-04-09T18:51:57.913Z,8.92
2023-04-09T18:54:27.097Z,8.92
2023-04-09T18:56:57.841Z,8.92
2023-04-09T18:59:26.655Z,8.92
2023-04-09T19:01:56.219Z,8.93
2023-04-09T19:04:28.741Z,8.92
2023-04-09T19:06:58.029Z,8.90
2023-04-09T19:09:26.454Z,8.87
2023-04-09T19:11:55.520Z,8.87
2023-04-09T19:14:27.710Z,8.87
2023-04-09T19:16:57.701Z,8.87
2023-04-09T19:19:26.801Z,8.85
2023-04-09T19:21:55.615Z,8.84
2023-04-09T19:24:25.681Z,8.85
2023-04-09T19:26:55.324Z,8.87
2023-04-09T19:29:24.422Z,8.92
2023-04-09T19:31:54.457Z,8.93
2023-04-09T19:34:23.602Z,8.93
2023-04-09T19:36:52.343Z,8.91
2023-04-09T19:39:21.434Z,8.89
2023-04-09T19:41:50.647Z,8.88
2023-04-09T19:44:19.422Z,8.86
2023-04-09T19:46:48.742Z,8.86
2023-04-09T19:49:17.608Z,8.86
2023-04-09T19:51:46.062Z,8.86
2023-04-09T19:54:17.199Z,8.86
2023-04-09T19:56:46.245Z,8.86
2023-04-09T19:59:15.038Z,8.85
2023-04-09T20:01:44.305Z,8.84
2023-04-09T20:04:13.438Z,8.83
2023-04-09T20:06:43.547Z,8.80
2023-04-09T20:09:13.014Z,8.79
2023-04-09T20:11:42.459Z,8.76
2023-04-09T20:14:12.408Z,8.73
2023-04-09T20:16:41.257Z,8.71
2023-04-09T20:19:09.932Z,8.72
2023-04-09T20:21:38.721Z,8.75
2023-04-09T20:24:07.936Z,8.74
2023-04-09T20:26:36.845Z,8.76
2023-04-09T20:29:05.670Z,8.78
2023-04-09T20:31:35.763Z,8.77
2023-04-09T20:34:05.007Z,8.74
2023-04-09T20:36:34.835Z,8.73
2023-04-09T20:39:05.156Z,8.74
2023-04-09T20:41:34.029Z,8.75
2023-04-09T20:44:02.725Z,8.76
2023-04-09T20:46:31.921Z,8.74
2023-04-09T20:49:01.868Z,8.72
2023-04-09T20:51:33.462Z,8.71
2023-04-09T20:54:02.815Z,8.69
2023-04-09T20:56:32.375Z,8.65
2023-04-09T20:59:02.110Z,8.62
2023-04-09T21:01:32.706Z,8.60
2023-04-09T21:04:01.215Z,8.58
2023-04-09T21:06:29.708Z,8.61
2023-04-09T21:08:59.876Z,8.66
2023-04-09T21:11:29.291Z,8.71
2023-04-09T21:13:58.354Z,8.74
2023-04-09T21:16:30.408Z,8.77
2023-04-09T21:18:59.387Z,8.84
2023-04-09T21:21:28.632Z,8.85
2023-04-09T21:23:57.727Z,8.83
2023-04-09T21:26:26.629Z,8.81
2023-04-09T21:28:55.514Z,8.82
2023-04-09T21:31:24.739Z,8.86
2023-04-09T21:33:53.685Z,8.87
2023-04-09T21:36:22.300Z,8.89
2023-04-09T21:38:51.440Z,8.93
2023-04-09T21:41:20.184Z,8.94
2023-04-09T21:43:49.288Z,8.92
2023-04-09T21:46:18.462Z,8.89
2023-04-09T21:48:47.110Z,8.87
2023-04-09T21:51:15.943Z,8.86
2023-04-09T21:53:45.108Z,8.84
2023-04-09T21:56:13.602Z,8.83
2023-04-09T21:58:42.438Z,8.84
2023-04-09T22:01:22.416Z,8.84
2023-04-09T22:04:00.594Z,8.86
2023-04-09T22:06:30.264Z,8.88
2023-04-09T22:08:58.904Z,8.89
2023-04-09T22:11:28.564Z,8.90
2023-04-09T22:13:58.654Z,8.90
2023-04-09T22:16:27.610Z,8.89
2023-04-09T22:18:57.037Z,8.87
2023-04-09T22:21:27.309Z,8.87
2023-04-09T22:23:56.217Z,8.87
2023-04-09T22:26:24.855Z,8.83
2023-04-09T22:28:54.312Z,8.79
2023-04-09T22:31:23.262Z,8.78
2023-04-09T22:33:51.915Z,8.79
2023-04-09T22:36:22.160Z,8.82
2023-04-09T22:38:52.137Z,8.84
2023-04-09T22:41:21.560Z,8.83
2023-04-09T22:43:51.095Z,8.80
2023-04-09T22:46:20.157Z,8.83
2023-04-09T22:48:49.956Z,8.84
2023-04-09T22:51:18.995Z,8.84
2023-04-09T22:53:47.770Z,8.83
2023-04-09T22:56:16.311Z,8.82
2023-04-09T22:58:44.931Z,8.82
2023-04-09T23:01:13.880Z,8.84
2023-04-09T23:03:42.380Z,8.87
2023-04-09T23:06:11.404Z,8.86
2023-04-09T23:08:40.853Z,8.84
2023-04-09T23:11:11.001Z,8.84
2023-04-09T23:13:40.270Z,8.85
2023-04-09T23:16:09.960Z,8.84
2023-04-09T23:18:39.107Z,8.84
2023-04-09T23:21:09.718Z,8.87
2023-04-09T23:23:39.278Z,8.90
2023-04-09T23:26:08.160Z,8.92
2023-04-09T23:28:37.905Z,8.88
2023-04-09T23:31:06.522Z,8.84
2023-04-09T23:33:35.267Z,8.84
2023-04-09T23:36:05.049Z,8.85
2023-04-09T23:38:33.608Z,8.85
2023-04-09T23:41:02.585Z,8.85
2023-04-09T23:43:31.817Z,8.87
2023-04-09T23:46:00.327Z,8.87
2023-04-09T23:48:29.036Z,8.85
2023-04-09T23:50:58.024Z,8.85
2023-04-09T23:53:26.704Z,8.84
2023-04-09T23:55:55.561Z,8.82
2023-04-09T23:58:24.619Z,8.82
